createdAt,value
2022-08-17T16:33:31.099Z,28.25
2022-08-17T16:40:59.255Z,27.99
2022-08-17T16:43:36.907Z,28.04
2022-08-17T16:46:08.787Z,28.07
2022-08-17T16:48:43.165Z,28.11
2022-08-17T16:51:25.015Z,28.12
2022-08-17T16:54:19.466Z,28.03
2022-08-17T16:57:09.005Z,27.97
2022-08-17T16:59:43.789Z,27.95
2022-08-17T17:02:30.483Z,27.96
2022-08-17T17:05:55.341Z,27.98
2022-08-17T17:08:38.455Z,27.92
2022-08-17T17:11:29.887Z,27.88
2022-08-17T17:14:30.179Z,27.89
2022-08-17T17:18:13.866Z,27.82
2022-08-17T17:21:42.051Z,27.59
2022-08-17T17:24:32.576Z,27.43
2022-08-17T17:27:30.617Z,27.41
2022-08-17T17:30:12.039Z,27.40
2022-08-17T17:33:02.354Z,27.40
2022-08-17T17:35:47.718Z,27.37
2022-08-17T17:38:46.387Z,27.22
2022-08-17T17:41:45.098Z,26.99
2022-08-17T17:44:25.705Z,26.83
2022-08-17T17:47:03.062Z,26.78
2022-08-17T17:49:51.707Z,26.70
2022-08-17T17:52:36.718Z,26.53
2022-08-17T17:55:20.070Z,26.35
2022-08-17T17:58:13.773Z,26.18
2022-08-17T18:01:28.177Z,26.06
2022-08-17T18:04:20.352Z,26.03
2022-08-17T18:07:26.111Z,26.06
2022-08-17T18:10:19.794Z,26.08
2022-08-17T18:13:27.237Z,26.13
2022-08-17T18:16:01.575Z,26.17
2022-08-17T18:18:40.847Z,26.20
2022-08-17T18:21:16.905Z,26.20
2022-08-17T18:24:00.750Z,26.20
2022-08-17T18:26:33.915Z,26.21
2022-08-17T18:29:25.313Z,26.14
2022-08-17T18:32:19.577Z,26.10
2022-08-17T18:35:12.331Z,25.94
2022-08-17T18:37:55.971Z,25.74
2022-08-17T18:40:38.970Z,25.60
2022-08-17T18:43:24.901Z,25.58
2022-08-17T18:45:59.012Z,25.57
2022-08-17T18:48:50.304Z,25.49
2022-08-17T18:51:40.761Z,25.41
2022-08-17T18:54:37.690Z,25.35
2022-08-17T18:57:11.656Z,25.18
2022-08-17T18:59:49.682Z,25.05
2022-08-17T19:02:44.719Z,24.98
2022-08-17T19:05:41.824Z,24.99
2022-08-17T19:08:38.171Z,24.97
2022-08-17T19:11:27.870Z,24.68
2022-08-17T19:14:10.056Z,24.33
2022-08-17T19:17:11.570Z,24.14
2022-08-17T19:20:19.535Z,24.08
2022-08-17T19:23:15.554Z,24.00
2022-08-17T19:25:52.703Z,23.94
2022-08-17T19:29:04.922Z,23.93
2022-08-17T19:31:41.656Z,23.91
2022-08-17T19:34:29.919Z,23.89
2022-08-17T19:37:36.487Z,23.93
2022-08-17T19:40:51.048Z,24.03
2022-08-17T19:43:38.862Z,24.17
2022-08-17T19:46:56.190Z,24.26
2022-08-17T19:49:41.633Z,24.26
2022-08-17T19:52:56.094Z,24.29
2022-08-17T19:55:57.100Z,24.35
2022-08-17T19:58:33.699Z,24.32
2022-08-17T20:06:12.550Z,24.21
2022-08-17T20:09:42.136Z,24.10
2022-08-17T20:12:40.943Z,24.10
2022-08-17T20:15:34.271Z,24.11
2022-08-17T20:18:15.736Z,24.08
2022-08-17T20:20:59.303Z,23.99
2022-08-17T20:23:42.614Z,23.93
2022-08-17T20:27:08.221Z,23.85
2022-08-17T20:30:51.268Z,23.75
2022-08-17T20:33:42.243Z,23.63
2022-08-17T20:37:00.640Z,23.57
2022-08-17T20:40:09.790Z,23.51
2022-08-17T20:43:19.596Z,23.48
2022-08-17T20:46:37.452Z,23.43
2022-08-17T20:50:03.834Z,23.40
2022-08-17T20:53:33.661Z,23.42
2022-08-17T20:57:09.197Z,23.45
2022-08-17T21:00:07.704Z,23.40
2022-08-17T21:03:09.890Z,23.31
2022-08-17T21:06:38.656Z,23.21
2022-08-17T21:14:43.466Z,22.94
2022-08-17T21:18:15.967Z,22.87
2022-08-17T21:24:52.672Z,22.75
2022-08-17T21:27:53.228Z,22.67
2022-08-17T21:31:23.797Z,22.59
2022-08-17T21:35:01.351Z,22.48
2022-08-17T21:37:57.237Z,22.40
2022-08-17T21:40:36.544Z,22.34
2022-08-17T21:44:16.312Z,22.30
2022-08-17T21:47:30.300Z,22.22
2022-08-17T21:50:51.832Z,22.16
2022-08-17T21:53:47.605Z,22.12
2022-08-17T21:56:47.915Z,22.09
2022-08-17T21:59:41.004Z,22.08
2022-08-17T22:02:42.258Z,22.08
2022-08-17T22:05:17.922Z,22.05
2022-08-17T22:08:16.560Z,22.01
2022-08-17T22:11:02.495Z,21.97
2022-08-17T22:14:12.885Z,21.91
2022-08-17T22:17:01.999Z,21.84
2022-08-17T22:20:01.813Z,21.80
2022-08-17T22:23:12.920Z,21.78
2022-08-17T22:26:40.179Z,21.79
2022-08-17T22:29:47.835Z,21.82
2022-08-17T22:33:03.256Z,21.86
2022-08-17T22:36:29.652Z,21.92
2022-08-17T22:39:30.625Z,21.97
2022-08-17T22:42:08.982Z,21.93
2022-08-17T22:45:08.237Z,21.85
2022-08-17T22:48:19.053Z,21.78
2022-08-17T22:51:25.315Z,21.71
2022-08-17T22:54:43.764Z,21.66
2022-08-17T22:57:55.500Z,21.62
2022-08-17T23:00:33.206Z,21.56
2022-08-17T23:03:47.891Z,21.51
2022-08-17T23:06:37.143Z,21.51
2022-08-17T23:09:55.314Z,21.54
2022-08-17T23:12:48.487Z,21.56
2022-08-17T23:16:01.283Z,21.60
2022-08-17T23:19:33.073Z,21.67
2022-08-17T23:22:22.419Z,21.57
2022-08-17T23:25:14.561Z,21.51
2022-08-17T23:28:26.275Z,21.54
2022-08-17T23:31:21.440Z,21.61
2022-08-17T23:34:28.335Z,21.66
2022-08-17T23:37:37.908Z,21.66
2022-08-17T23:40:30.300Z,21.67
2022-08-17T23:47:31.691Z,21.64
2022-08-17T23:51:04.191Z,21.66
2022-08-17T23:54:56.138Z,21.67
2022-08-17T23:58:09.386Z,21.60
